x

Halibut Bank (46146) Wave Buoy

12:00pm - Sat 28th Feb 2015 All times are PST. -8 hours from GMT.

  • Sig Wave height 0.7ft
  • Peak Period 4s
  • Wind
  • Sea Temp 50°f
  • 空気 Temp 47°f
  • Sea Pressure 1024.6mb
  • Halibut Bank
  • Halibut Bank

More Historic Weather Station data

Upgrade to MSW Pro to gain access to the past 30 days of data for over 8000 Wavebouys and Weather Stations around the globe.

Join Pro

Comparision Forecast

View Surf forecast
   
Sat 02/28 12:00pm 0.7ft 4s  -  2 mph 1024.6mb 50f 47f
11:00am 0.7ft 4s  -  mph 1024.6mb 48f 48f
10:00am 1ft 3s  -  mph 1024.3mb 47f 49f
9:00am 1ft 4s 2
mph
1024.3mb 47f 45f
8:00am 1ft 4s 2
mph
1023.9mb 47f 45f
7:00am 1ft 4s 4
mph
1022.9mb 47f 44f
6:00am 1.3ft 4s 4 7 mph 1022.4mb 47f 43f
5:00am 1.3ft 4s 4 7 mph 1021.9mb 47f 45f
4:00am 1.3ft 4s 7 9 mph 1021.3mb 47f 45f
3:00am 1.3ft 3s 4
mph
1020.7mb 47f 45f
2:00am 1.3ft 3s 2 4 mph 1020.1mb 47f 47f
1:00am 1.3ft 3s 7 9 mph 1019.8mb 47f 47f
12:00am 1.3ft 4s 11 13 mph 1019.1mb 47f 48f
Fri 02/27 11:00pm 1.3ft 3s 2 7 mph 1018.6mb 47f 50f
10:00pm 1.3ft 3s 4 11 mph 1017.9mb 47f 50f
9:00pm 0.7ft 3s 2 4 mph 1016.6mb 47f 49f
8:00pm 0.7ft 3s 2
mph
1015.5mb 47f 47f
7:00pm 0.7ft 3s  -  2 mph 1014.2mb 47f 48f
6:00pm 1ft 3s 4 7 mph 1013.1mb 48f 49f
5:00pm 1ft 3s 4 7 mph 1012.5mb 48f 49f
4:00pm 1.3ft 3s 9
mph
1011.8mb 48f 49f
3:00pm 1.3ft 3s 11 13 mph 1011.3mb 48f 48f
2:00pm 1.6ft 3s 13 16 mph 1011mb 48f 47f
1:00pm 1.6ft 4s 16 18 mph 1010.5mb 48f 46f
12:00pm 2ft 4s 16 18 mph 1010.5mb 47f 46f
11:00am 2ft 4s 16 18 mph 1010.3mb 47f 46f
10:00am 2ft 4s 18 22 mph 1010mb 47f 46f
9:00am 2ft 4s 18 22 mph 1009.9mb 47f 46f
8:00am 1.6ft 4s 18 20 mph 1009.4mb 47f 46f
7:00am 1.6ft 4s 18 22 mph 1008.9mb 47f 46f
6:00am 1.6ft 4s 18 22 mph 1008.9mb 47f 46f
5:00am 1.6ft 3s 18 20 mph 1009.1mb 47f 46f
4:00am 1.6ft 3s 16 20 mph 1009.5mb 47f 46f
3:00am 1ft 3s 18 22 mph 1009.4mb 47f 46f
2:00am 0.7ft 2s 11 13 mph 1010mb 47f 46f
1:00am 0.7ft 2s 9 11 mph 1010.3mb 47f 46f
12:00am 0.7ft 2s 11 13 mph 1010.9mb 47f 46f
Thu 02/26 11:00pm 0.7ft 2s 13 16 mph 1011.3mb 47f 46f
10:00pm 0.3ft 2s 4 9 mph 1012.2mb 47f 46f
9:00pm 0.7ft 6s 7 9 mph 1012.8mb 47f 46f
8:00pm 0.3ft 2s 7 9 mph 1013.3mb 47f 46f
7:00pm 0.7ft 2s 4 7 mph 1014.2mb 47f 47f
6:00pm 0.7ft 2s 7 9 mph 1014.9mb 47f 47f
5:00pm 0.7ft 2s 9
mph
1015.6mb 47f 47f
4:00pm 0.7ft 2s 11 13 mph 1016.2mb 47f 47f
3:00pm 0.7ft 2s 11 13 mph 1017mb 47f 46f
2:00pm 1ft 2s 13
mph
1017.8mb 47f 46f
1:00pm 0.7ft 2s 13
mph
1018.7mb 47f 46f
12:00pm 0.7ft 2s 11 13 mph 1019.6mb 47f 46f
11:00am 0.3ft 2s 11
mph
1020.5mb 47f 46f
10:00am 0.3ft 6s 9 11 mph 1021.2mb 47f 46f
9:00am 0.3ft 2s 9
mph
1021.6mb 46f 45f
8:00am 0.7ft 4s 4 7 mph 1022.3mb 47f 45f
7:00am 0.3ft 2s 7 9 mph 1022.1mb 46f 45f
6:00am 0.3ft 2s 7 9 mph 1022.6mb 46f 45f
5:00am 0.3ft 2s 2 4 mph 1022.9mb 47f 45f
4:00am 0.3ft 2s 4
mph
1023.3mb 47f 45f
3:00am 0.3ft 2s 2 4 mph 1024mb 47f 46f
2:00am 0.3ft 2s 7
mph
1024.3mb 47f 46f
1:00am 0.3ft 5s 4
mph
1024.5mb 47f 45f
12:00am 0.3ft 5s 2
mph
1025mb 47f 46f
Wed 02/25 11:00pm 0.3ft 4s 2
mph
1025mb 47f 45f
10:00pm 0.3ft 6s  -  2 mph 1025.2mb 47f 46f
9:00pm 0.3ft 6s 4
mph
1025.6mb 47f 46f
8:00pm 0.3ft 3s 4
mph
1025.8mb 47f 46f
7:00pm 0.3ft 3s 4
mph
1026.2mb 47f 46f
6:00pm 0.3ft 4s 7
mph
1026.3mb 47f 46f
5:00pm 0.3ft 3s 4 7 mph 1026.9mb 47f 46f
4:00pm 0.3ft 7s 4 7 mph 1027.6mb 47f 46f
3:00pm 0.3ft 2s 4
mph
1028mb 47f 45f
2:00pm 0.3ft 4s 4
mph
1028.4mb 47f 45f
12:00pm 0.3ft 6s 9 11 mph 1028.6mb 47f 46f
11:00am 0.3ft 2s 7 9 mph 1029.5mb 47f 46f
10:00am 0.3ft 4s 9 11 mph 1029.6mb 47f 46f
9:00am 0.3ft 2s 4 7 mph 1029.8mb 47f 46f
8:00am 0.7ft 3s 2 4 mph 1029.8mb 47f 46f
7:00am 0.3ft 2s 2
mph
1029.9mb 47f 46f
6:00am 0.3ft 2s 2
mph
1030mb 47f 45f
5:00am 0.3ft 2s 4
mph
1030mb 47f 45f
4:00am 0.3ft 4s 4
mph
1030.1mb 47f 45f
3:00am 0.7ft 2s 4
mph
1030mb 47f 46f
2:00am 0.3ft 2s 2 4 mph 1029.9mb 47f 46f
1:00am 0.7ft 2s  -  2 mph 1029.4mb 47f 45f
12:00am 0.7ft 2s 7 9 mph 1028.9mb 47f 45f
Tue 02/24 11:00pm 0.7ft 2s 9
mph
1028.7mb 47f 46f
10:00pm 0.7ft 2s 11 13 mph 1028mb 47f 46f